sensor_id;sensor_type;location;lat;lon;timestamp;P1;durP1;ratioP1;P2;durP2;ratioP2
71637;SDS011;59485;43.542;-5.676;2023-09-18T00:01:41;5.78;;;1.10;;
71637;SDS011;59485;43.542;-5.676;2023-09-18T00:04:07;5.20;;;1.50;;
71637;SDS011;59485;43.542;-5.676;2023-09-18T00:06:32;6.07;;;1.30;;
71637;SDS011;59485;43.542;-5.676;2023-09-18T00:08:58;4.38;;;1.05;;
71637;SDS011;59485;43.542;-5.676;2023-09-18T00:11:24;4.33;;;1.13;;
71637;SDS011;59485;43.542;-5.676;2023-09-18T00:13:50;3.10;;;0.50;;
71637;SDS011;59485;43.542;-5.676;2023-09-18T00:16:15;3.10;;;0.87;;
71637;SDS011;59485;43.542;-5.676;2023-09-18T00:18:41;4.10;;;0.88;;
71637;SDS011;59485;43.542;-5.676;2023-09-18T00:21:07;4.45;;;0.70;;
71637;SDS011;59485;43.542;-5.676;2023-09-18T00:23:35;4.70;;;1.13;;
71637;SDS011;59485;43.542;-5.676;2023-09-18T00:26:01;6.97;;;1.13;;
71637;SDS011;59485;43.542;-5.676;2023-09-18T00:28:27;3.53;;;0.90;;
71637;SDS011;59485;43.542;-5.676;2023-09-18T00:30:52;4.53;;;1.10;;
71637;SDS011;59485;43.542;-5.676;2023-09-18T00:33:18;3.87;;;1.40;;
71637;SDS011;59485;43.542;-5.676;2023-09-18T00:35:48;5.65;;;1.00;;
71637;SDS011;59485;43.542;-5.676;2023-09-18T00:38:14;4.43;;;0.70;;
71637;SDS011;59485;43.542;-5.676;2023-09-18T00:40:40;4.35;;;1.05;;
71637;SDS011;59485;43.542;-5.676;2023-09-18T00:43:06;4.70;;;1.10;;
71637;SDS011;59485;43.542;-5.676;2023-09-18T00:45:32;4.50;;;1.02;;
71637;SDS011;59485;43.542;-5.676;2023-09-18T00:47:58;4.07;;;1.47;;
71637;SDS011;59485;43.542;-5.676;2023-09-18T00:50:23;4.97;;;1.80;;
71637;SDS011;59485;43.542;-5.676;2023-09-18T00:52:49;5.03;;;3.05;;
71637;SDS011;59485;43.542;-5.676;2023-09-18T00:55:15;5.20;;;3.00;;
71637;SDS011;59485;43.542;-5.676;2023-09-18T00:57:41;4.82;;;2.45;;
71637;SDS011;59485;43.542;-5.676;2023-09-18T01:00:08;4.38;;;2.28;;
71637;SDS011;59485;43.542;-5.676;2023-09-18T01:02:34;4.40;;;1.98;;
71637;SDS011;59485;43.542;-5.676;2023-09-18T01:05:00;5.40;;;1.80;;
71637;SDS011;59485;43.542;-5.676;2023-09-18T01:07:26;7.22;;;3.47;;
71637;SDS011;59485;43.542;-5.676;2023-09-18T01:09:53;7.70;;;4.32;;
71637;SDS011;59485;43.542;-5.676;2023-09-18T01:17:39;5.40;;;2.67;;
71637;SDS011;59485;43.542;-5.676;2023-09-18T01:20:09;7.88;;;3.53;;
71637;SDS011;59485;43.542;-5.676;2023-09-18T01:22:39;6.68;;;2.75;;
71637;SDS011;59485;43.542;-5.676;2023-09-18T01:25:04;7.17;;;2.80;;
71637;SDS011;59485;43.542;-5.676;2023-09-18T01:27:31;5.75;;;2.50;;
71637;SDS011;59485;43.542;-5.676;2023-09-18T01:29:57;6.90;;;2.38;;
71637;SDS011;59485;43.542;-5.676;2023-09-18T01:32:24;5.73;;;2.40;;
71637;SDS011;59485;43.542;-5.676;2023-09-18T01:34:53;5.80;;;2.00;;
71637;SDS011;59485;43.542;-5.676;2023-09-18T01:37:22;6.50;;;1.98;;
71637;SDS011;59485;43.542;-5.676;2023-09-18T01:39:50;13.57;;;3.47;;
71637;SDS011;59485;43.542;-5.676;2023-09-18T01:42:17;17.52;;;3.45;;
71637;SDS011;59485;43.542;-5.676;2023-09-18T01:44:43;23.88;;;3.42;;
71637;SDS011;59485;43.542;-5.676;2023-09-18T01:47:11;9.50;;;1.83;;
71637;SDS011;59485;43.542;-5.676;2023-09-18T01:49:39;6.55;;;1.60;;
71637;SDS011;59485;43.542;-5.676;2023-09-18T01:52:06;7.00;;;1.50;;
71637;SDS011;59485;43.542;-5.676;2023-09-18T01:54:33;5.18;;;1.10;;
71637;SDS011;59485;43.542;-5.676;2023-09-18T01:56:59;11.32;;;1.52;;
71637;SDS011;59485;43.542;-5.676;2023-09-18T01:59:25;6.88;;;1.02;;
71637;SDS011;59485;43.542;-5.676;2023-09-18T02:01:51;11.87;;;1.93;;
71637;SDS011;59485;43.542;-5.676;2023-09-18T02:04:18;9.50;;;1.20;;
71637;SDS011;59485;43.542;-5.676;2023-09-18T02:06:44;9.18;;;1.10;;
71637;SDS011;59485;43.542;-5.676;2023-09-18T02:09:11;10.93;;;1.98;;
71637;SDS011;59485;43.542;-5.676;2023-09-18T02:11:37;14.90;;;2.33;;
71637;SDS011;59485;43.542;-5.676;2023-09-18T02:14:04;7.43;;;1.35;;
71637;SDS011;59485;43.542;-5.676;2023-09-18T02:16:34;6.47;;;1.30;;
71637;SDS011;59485;43.542;-5.676;2023-09-18T02:19:01;9.35;;;2.00;;
71637;SDS011;59485;43.542;-5.676;2023-09-18T02:21:27;8.33;;;1.50;;
71637;SDS011;59485;43.542;-5.676;2023-09-18T02:23:53;8.20;;;1.55;;
71637;SDS011;59485;43.542;-5.676;2023-09-18T02:26:20;7.90;;;2.03;;
71637;SDS011;59485;43.542;-5.676;2023-09-18T02:28:46;7.40;;;1.27;;
71637;SDS011;59485;43.542;-5.676;2023-09-18T02:31:11;10.20;;;1.95;;
71637;SDS011;59485;43.542;-5.676;2023-09-18T02:33:37;6.33;;;1.70;;
71637;SDS011;59485;43.542;-5.676;2023-09-18T02:36:04;5.32;;;1.42;;
71637;SDS011;59485;43.542;-5.676;2023-09-18T02:38:30;6.28;;;1.83;;
71637;SDS011;59485;43.542;-5.676;2023-09-18T02:40:55;11.30;;;2.00;;
71637;SDS011;59485;43.542;-5.676;2023-09-18T02:43:22;6.28;;;1.85;;
71637;SDS011;59485;43.542;-5.676;2023-09-18T02:45:48;8.23;;;2.22;;
71637;SDS011;59485;43.542;-5.676;2023-09-18T02:48:15;8.20;;;1.77;;
71637;SDS011;59485;43.542;-5.676;2023-09-18T02:50:41;10.25;;;1.80;;
71637;SDS011;59485;43.542;-5.676;2023-09-18T02:53:07;8.05;;;2.05;;
71637;SDS011;59485;43.542;-5.676;2023-09-18T02:55:41;8.07;;;2.47;;
71637;SDS011;59485;43.542;-5.676;2023-09-18T02:58:06;8.68;;;1.80;;
71637;SDS011;59485;43.542;-5.676;2023-09-18T03:00:34;10.13;;;1.63;;
71637;SDS011;59485;43.542;-5.676;2023-09-18T03:02:59;8.07;;;1.90;;
71637;SDS011;59485;43.542;-5.676;2023-09-18T03:05:25;9.90;;;2.40;;
71637;SDS011;59485;43.542;-5.676;2023-09-18T03:07:51;5.93;;;1.73;;
71637;SDS011;59485;43.542;-5.676;2023-09-18T03:10:17;7.10;;;2.28;;
71637;SDS011;59485;43.542;-5.676;2023-09-18T03:12:43;11.63;;;2.13;;
71637;SDS011;59485;43.542;-5.676;2023-09-18T03:15:13;10.97;;;3.00;;
71637;SDS011;59485;43.542;-5.676;2023-09-18T03:17:38;9.27;;;2.40;;
71637;SDS011;59485;43.542;-5.676;2023-09-18T03:20:07;9.30;;;3.05;;
71637;SDS011;59485;43.542;-5.676;2023-09-18T03:22:33;13.27;;;3.10;;
71637;SDS011;59485;43.542;-5.676;2023-09-18T03:24:58;14.20;;;4.38;;
71637;SDS011;59485;43.542;-5.676;2023-09-18T03:27:24;11.13;;;3.23;;
71637;SDS011;59485;43.542;-5.676;2023-09-18T03:29:54;8.35;;;3.00;;
71637;SDS011;59485;43.542;-5.676;2023-09-18T03:32:19;7.90;;;2.35;;
71637;SDS011;59485;43.542;-5.676;2023-09-18T03:34:45;5.63;;;1.90;;
71637;SDS011;59485;43.542;-5.676;2023-09-18T03:37:11;6.75;;;1.85;;
71637;SDS011;59485;43.542;-5.676;2023-09-18T03:39:36;5.10;;;1.67;;
71637;SDS011;59485;43.542;-5.676;2023-09-18T03:42:02;7.93;;;2.57;;
71637;SDS011;59485;43.542;-5.676;2023-09-18T03:44:28;6.90;;;2.70;;
71637;SDS011;59485;43.542;-5.676;2023-09-18T03:46:54;8.82;;;2.42;;
71637;SDS011;59485;43.542;-5.676;2023-09-18T03:49:19;6.67;;;2.17;;
71637;SDS011;59485;43.542;-5.676;2023-09-18T03:51:45;8.63;;;2.65;;
71637;SDS011;59485;43.542;-5.676;2023-09-18T03:54:11;6.00;;;2.07;;
71637;SDS011;59485;43.542;-5.676;2023-09-18T03:56:36;7.53;;;2.37;;
71637;SDS011;59485;43.542;-5.676;2023-09-18T03:59:01;6.82;;;2.17;;
71637;SDS011;59485;43.542;-5.676;2023-09-18T04:01:27;10.23;;;4.07;;
71637;SDS011;59485;43.542;-5.676;2023-09-18T04:03:53;14.13;;;4.03;;
71637;SDS011;59485;43.542;-5.676;2023-09-18T04:06:20;11.20;;;3.73;;
71637;SDS011;59485;43.542;-5.676;2023-09-18T04:08:49;8.75;;;2.85;;
71637;SDS011;59485;43.542;-5.676;2023-09-18T04:11:15;9.85;;;2.33;;
71637;SDS011;59485;43.542;-5.676;2023-09-18T04:13:40;7.50;;;2.00;;
71637;SDS011;59485;43.542;-5.676;2023-09-18T04:16:06;8.05;;;1.90;;
71637;SDS011;59485;43.542;-5.676;2023-09-18T04:18:32;5.47;;;1.70;;
71637;SDS011;59485;43.542;-5.676;2023-09-18T04:20:58;6.55;;;2.00;;
71637;SDS011;59485;43.542;-5.676;2023-09-18T04:23:24;6.03;;;1.50;;
71637;SDS011;59485;43.542;-5.676;2023-09-18T04:25:52;7.53;;;1.45;;
71637;SDS011;59485;43.542;-5.676;2023-09-18T04:28:19;7.78;;;1.55;;
71637;SDS011;59485;43.542;-5.676;2023-09-18T04:30:49;6.15;;;1.52;;
71637;SDS011;59485;43.542;-5.676;2023-09-18T04:33:16;6.87;;;2.40;;
71637;SDS011;59485;43.542;-5.676;2023-09-18T04:35:42;5.43;;;1.40;;
71637;SDS011;59485;43.542;-5.676;2023-09-18T04:38:08;8.60;;;2.17;;
71637;SDS011;59485;43.542;-5.676;2023-09-18T04:40:36;7.85;;;2.13;;
71637;SDS011;59485;43.542;-5.676;2023-09-18T04:43:02;5.80;;;1.50;;
71637;SDS011;59485;43.542;-5.676;2023-09-18T04:45:29;6.35;;;2.00;;
71637;SDS011;59485;43.542;-5.676;2023-09-18T04:47:58;4.75;;;1.35;;
71637;SDS011;59485;43.542;-5.676;2023-09-18T04:50:24;4.60;;;1.30;;
71637;SDS011;59485;43.542;-5.676;2023-09-18T04:52:51;7.70;;;1.50;;
71637;SDS011;59485;43.542;-5.676;2023-09-18T04:55:19;6.10;;;1.70;;
71637;SDS011;59485;43.542;-5.676;2023-09-18T04:57:45;4.93;;;1.40;;
71637;SDS011;59485;43.542;-5.676;2023-09-18T05:00:10;4.50;;;1.60;;
71637;SDS011;59485;43.542;-5.676;2023-09-18T05:02:38;7.05;;;1.27;;
71637;SDS011;59485;43.542;-5.676;2023-09-18T05:05:05;5.87;;;1.07;;
71637;SDS011;59485;43.542;-5.676;2023-09-18T05:07:34;4.07;;;1.20;;
71637;SDS011;59485;43.542;-5.676;2023-09-18T05:09:59;5.63;;;0.85;;
71637;SDS011;59485;43.542;-5.676;2023-09-18T05:12:25;4.43;;;1.17;;
71637;SDS011;59485;43.542;-5.676;2023-09-18T05:14:51;5.05;;;1.40;;
71637;SDS011;59485;43.542;-5.676;2023-09-18T05:17:16;5.57;;;1.47;;
71637;SDS011;59485;43.542;-5.676;2023-09-18T05:19:43;9.13;;;1.55;;
71637;SDS011;59485;43.542;-5.676;2023-09-18T05:22:12;7.38;;;1.25;;
71637;SDS011;59485;43.542;-5.676;2023-09-18T05:24:40;7.50;;;1.00;;
71637;SDS011;59485;43.542;-5.676;2023-09-18T05:27:06;9.03;;;1.57;;
71637;SDS011;59485;43.542;-5.676;2023-09-18T05:29:32;7.70;;;0.88;;
71637;SDS011;59485;43.542;-5.676;2023-09-18T05:31:58;8.32;;;1.75;;
71637;SDS011;59485;43.542;-5.676;2023-09-18T05:34:23;9.20;;;1.50;;
71637;SDS011;59485;43.542;-5.676;2023-09-18T05:36:49;10.43;;;1.73;;
71637;SDS011;59485;43.542;-5.676;2023-09-18T05:39:15;16.13;;;2.90;;
71637;SDS011;59485;43.542;-5.676;2023-09-18T05:41:40;13.47;;;2.30;;
71637;SDS011;59485;43.542;-5.676;2023-09-18T05:44:06;8.55;;;1.65;;
71637;SDS011;59485;43.542;-5.676;2023-09-18T05:46:35;10.70;;;2.00;;
71637;SDS011;59485;43.542;-5.676;2023-09-18T05:49:01;12.40;;;3.47;;
71637;SDS011;59485;43.542;-5.676;2023-09-18T05:51:27;9.67;;;1.90;;
71637;SDS011;59485;43.542;-5.676;2023-09-18T05:53:53;8.27;;;1.58;;
71637;SDS011;59485;43.542;-5.676;2023-09-18T05:56:19;11.57;;;1.57;;
71637;SDS011;59485;43.542;-5.676;2023-09-18T05:58:44;6.90;;;2.05;;
71637;SDS011;59485;43.542;-5.676;2023-09-18T06:01:10;8.27;;;2.10;;
71637;SDS011;59485;43.542;-5.676;2023-09-18T06:03:35;12.30;;;3.47;;
71637;SDS011;59485;43.542;-5.676;2023-09-18T06:06:01;8.80;;;1.33;;
71637;SDS011;59485;43.542;-5.676;2023-09-18T06:08:28;9.90;;;1.88;;
71637;SDS011;59485;43.542;-5.676;2023-09-18T06:10:55;11.52;;;1.77;;
71637;SDS011;59485;43.542;-5.676;2023-09-18T06:13:21;19.57;;;2.50;;
71637;SDS011;59485;43.542;-5.676;2023-09-18T06:15:49;10.07;;;1.85;;
71637;SDS011;59485;43.542;-5.676;2023-09-18T06:18:15;8.48;;;1.50;;
71637;SDS011;59485;43.542;-5.676;2023-09-18T06:20:44;15.75;;;1.90;;
71637;SDS011;59485;43.542;-5.676;2023-09-18T06:23:10;11.43;;;4.70;;
71637;SDS011;59485;43.542;-5.676;2023-09-18T06:25:36;14.87;;;3.40;;
71637;SDS011;59485;43.542;-5.676;2023-09-18T06:28:03;9.32;;;1.45;;
71637;SDS011;59485;43.542;-5.676;2023-09-18T06:30:29;10.57;;;3.90;;
71637;SDS011;59485;43.542;-5.676;2023-09-18T06:32:56;8.77;;;1.63;;
71637;SDS011;59485;43.542;-5.676;2023-09-18T06:35:22;7.45;;;1.55;;
71637;SDS011;59485;43.542;-5.676;2023-09-18T06:37:47;13.98;;;3.47;;
71637;SDS011;59485;43.542;-5.676;2023-09-18T06:40:13;14.97;;;4.57;;
71637;SDS011;59485;43.542;-5.676;2023-09-18T06:42:39;11.85;;;3.75;;
71637;SDS011;59485;43.542;-5.676;2023-09-18T06:45:05;15.27;;;3.80;;
71637;SDS011;59485;43.542;-5.676;2023-09-18T06:47:32;11.18;;;2.83;;
71637;SDS011;59485;43.542;-5.676;2023-09-18T06:49:58;11.10;;;2.33;;
71637;SDS011;59485;43.542;-5.676;2023-09-18T06:52:25;5.50;;;1.47;;
71637;SDS011;59485;43.542;-5.676;2023-09-18T06:54:52;9.18;;;1.15;;
71637;SDS011;59485;43.542;-5.676;2023-09-18T06:57:17;6.57;;;0.70;;
71637;SDS011;59485;43.542;-5.676;2023-09-18T06:59:43;5.33;;;0.57;;
71637;SDS011;59485;43.542;-5.676;2023-09-18T07:02:09;5.53;;;0.63;;
71637;SDS011;59485;43.542;-5.676;2023-09-18T07:04:40;3.67;;;0.85;;
71637;SDS011;59485;43.542;-5.676;2023-09-18T07:07:10;3.45;;;0.50;;
71637;SDS011;59485;43.542;-5.676;2023-09-18T07:09:39;2.95;;;0.50;;
71637;SDS011;59485;43.542;-5.676;2023-09-18T07:12:08;6.50;;;0.83;;
71637;SDS011;59485;43.542;-5.676;2023-09-18T07:14:35;3.95;;;0.93;;
71637;SDS011;59485;43.542;-5.676;2023-09-18T07:17:01;4.90;;;0.65;;
71637;SDS011;59485;43.542;-5.676;2023-09-18T07:19:27;3.10;;;0.30;;
71637;SDS011;59485;43.542;-5.676;2023-09-18T07:21:53;4.82;;;0.98;;
71637;SDS011;59485;43.542;-5.676;2023-09-18T07:24:18;7.50;;;0.73;;
71637;SDS011;59485;43.542;-5.676;2023-09-18T07:26:46;3.40;;;0.95;;
71637;SDS011;59485;43.542;-5.676;2023-09-18T07:29:16;4.10;;;0.90;;
71637;SDS011;59485;43.542;-5.676;2023-09-18T07:31:42;8.05;;;0.50;;
71637;SDS011;59485;43.542;-5.676;2023-09-18T07:34:08;5.53;;;1.30;;
71637;SDS011;59485;43.542;-5.676;2023-09-18T07:36:34;4.43;;;1.17;;
71637;SDS011;59485;43.542;-5.676;2023-09-18T07:39:00;4.10;;;0.90;;
71637;SDS011;59485;43.542;-5.676;2023-09-18T07:41:25;2.85;;;0.70;;
71637;SDS011;59485;43.542;-5.676;2023-09-18T07:43:51;2.93;;;0.60;;
71637;SDS011;59485;43.542;-5.676;2023-09-18T07:46:16;5.73;;;0.83;;
71637;SDS011;59485;43.542;-5.676;2023-09-18T07:48:42;4.43;;;0.70;;
71637;SDS011;59485;43.542;-5.676;2023-09-18T07:51:11;4.23;;;0.83;;
71637;SDS011;59485;43.542;-5.676;2023-09-18T07:53:37;5.47;;;0.75;;
71637;SDS011;59485;43.542;-5.676;2023-09-18T07:56:04;4.88;;;1.30;;
71637;SDS011;59485;43.542;-5.676;2023-09-18T07:58:30;7.90;;;1.00;;
71637;SDS011;59485;43.542;-5.676;2023-09-18T08:00:57;4.60;;;1.10;;
71637;SDS011;59485;43.542;-5.676;2023-09-18T08:03:31;5.10;;;1.00;;
71637;SDS011;59485;43.542;-5.676;2023-09-18T08:05:57;6.43;;;1.17;;
71637;SDS011;59485;43.542;-5.676;2023-09-18T08:08:22;5.32;;;1.20;;
71637;SDS011;59485;43.542;-5.676;2023-09-18T08:10:51;5.35;;;1.08;;
71637;SDS011;59485;43.542;-5.676;2023-09-18T08:13:18;4.95;;;1.55;;
71637;SDS011;59485;43.542;-5.676;2023-09-18T08:15:45;4.17;;;1.20;;
71637;SDS011;59485;43.542;-5.676;2023-09-18T08:18:10;3.58;;;1.40;;
71637;SDS011;59485;43.542;-5.676;2023-09-18T08:20:45;5.53;;;1.10;;
71637;SDS011;59485;43.542;-5.676;2023-09-18T08:23:11;3.97;;;0.80;;
71637;SDS011;59485;43.542;-5.676;2023-09-18T08:25:37;6.00;;;1.05;;
71637;SDS011;59485;43.542;-5.676;2023-09-18T08:28:05;5.22;;;1.00;;
71637;SDS011;59485;43.542;-5.676;2023-09-18T08:30:31;6.47;;;1.35;;
71637;SDS011;59485;43.542;-5.676;2023-09-18T08:32:57;10.17;;;1.70;;
71637;SDS011;59485;43.542;-5.676;2023-09-18T08:35:23;5.03;;;1.48;;
71637;SDS011;59485;43.542;-5.676;2023-09-18T08:37:53;5.80;;;1.30;;
71637;SDS011;59485;43.542;-5.676;2023-09-18T08:40:18;5.50;;;1.17;;
71637;SDS011;59485;43.542;-5.676;2023-09-18T08:42:45;8.00;;;1.60;;
71637;SDS011;59485;43.542;-5.676;2023-09-18T08:45:19;8.95;;;1.33;;
71637;SDS011;59485;43.542;-5.676;2023-09-18T08:47:51;5.17;;;1.07;;
71637;SDS011;59485;43.542;-5.676;2023-09-18T08:50:17;4.18;;;1.13;;
71637;SDS011;59485;43.542;-5.676;2023-09-18T08:52:45;7.13;;;1.23;;
71637;SDS011;59485;43.542;-5.676;2023-09-18T08:55:13;6.22;;;1.23;;
71637;SDS011;59485;43.542;-5.676;2023-09-18T08:57:39;5.00;;;1.40;;
71637;SDS011;59485;43.542;-5.676;2023-09-18T09:00:07;4.72;;;1.25;;
71637;SDS011;59485;43.542;-5.676;2023-09-18T09:02:33;5.43;;;1.15;;
71637;SDS011;59485;43.542;-5.676;2023-09-18T09:04:59;6.78;;;1.30;;
71637;SDS011;59485;43.542;-5.676;2023-09-18T09:07:25;8.93;;;2.13;;
71637;SDS011;59485;43.542;-5.676;2023-09-18T09:09:51;7.43;;;1.25;;
71637;SDS011;59485;43.542;-5.676;2023-09-18T09:12:45;8.00;;;0.97;;
71637;SDS011;59485;43.542;-5.676;2023-09-18T09:15:12;6.18;;;1.63;;
71637;SDS011;59485;43.542;-5.676;2023-09-18T09:17:37;7.78;;;1.77;;
71637;SDS011;59485;43.542;-5.676;2023-09-18T09:20:11;6.60;;;1.23;;
71637;SDS011;59485;43.542;-5.676;2023-09-18T09:22:38;7.10;;;1.88;;
71637;SDS011;59485;43.542;-5.676;2023-09-18T09:25:27;5.28;;;1.10;;
71637;SDS011;59485;43.542;-5.676;2023-09-18T09:28:00;8.73;;;1.58;;
71637;SDS011;59485;43.542;-5.676;2023-09-18T09:30:28;5.75;;;1.30;;
71637;SDS011;59485;43.542;-5.676;2023-09-18T09:32:55;4.50;;;1.27;;
71637;SDS011;59485;43.542;-5.676;2023-09-18T09:35:27;6.25;;;2.05;;
71637;SDS011;59485;43.542;-5.676;2023-09-18T09:37:56;6.63;;;1.42;;
71637;SDS011;59485;43.542;-5.676;2023-09-18T09:40:24;6.97;;;1.08;;
71637;SDS011;59485;43.542;-5.676;2023-09-18T09:42:51;4.53;;;1.00;;
71637;SDS011;59485;43.542;-5.676;2023-09-18T09:45:26;8.43;;;1.20;;
71637;SDS011;59485;43.542;-5.676;2023-09-18T09:48:01;7.20;;;2.10;;
71637;SDS011;59485;43.542;-5.676;2023-09-18T09:50:43;8.93;;;1.70;;
71637;SDS011;59485;43.542;-5.676;2023-09-18T09:53:13;3.20;;;0.82;;
71637;SDS011;59485;43.542;-5.676;2023-09-18T09:55:39;6.47;;;1.60;;
71637;SDS011;59485;43.542;-5.676;2023-09-18T09:58:06;9.20;;;1.70;;
71637;SDS011;59485;43.542;-5.676;2023-09-18T10:00:38;5.32;;;1.35;;
71637;SDS011;59485;43.542;-5.676;2023-09-18T10:03:10;8.95;;;1.75;;
71637;SDS011;59485;43.542;-5.676;2023-09-18T10:05:39;4.70;;;1.50;;
71637;SDS011;59485;43.542;-5.676;2023-09-18T10:08:08;7.15;;;1.90;;
71637;SDS011;59485;43.542;-5.676;2023-09-18T10:10:36;6.75;;;2.30;;
71637;SDS011;59485;43.542;-5.676;2023-09-18T10:13:08;8.68;;;2.47;;
71637;SDS011;59485;43.542;-5.676;2023-09-18T10:15:36;6.35;;;1.70;;
71637;SDS011;59485;43.542;-5.676;2023-09-18T10:18:04;9.20;;;1.70;;
71637;SDS011;59485;43.542;-5.676;2023-09-18T10:20:36;7.78;;;1.20;;
71637;SDS011;59485;43.542;-5.676;2023-09-18T10:23:09;8.23;;;1.00;;
71637;SDS011;59485;43.542;-5.676;2023-09-18T10:25:45;4.75;;;1.40;;
71637;SDS011;59485;43.542;-5.676;2023-09-18T10:28:13;5.45;;;1.52;;
71637;SDS011;59485;43.542;-5.676;2023-09-18T10:30:40;4.57;;;1.30;;
71637;SDS011;59485;43.542;-5.676;2023-09-18T10:33:08;5.85;;;1.60;;
71637;SDS011;59485;43.542;-5.676;2023-09-18T10:35:34;5.80;;;1.50;;
71637;SDS011;59485;43.542;-5.676;2023-09-18T10:38:01;5.35;;;1.67;;
71637;SDS011;59485;43.542;-5.676;2023-09-18T10:40:30;6.43;;;1.40;;
71637;SDS011;59485;43.542;-5.676;2023-09-18T10:42:58;7.63;;;1.00;;
71637;SDS011;59485;43.542;-5.676;2023-09-18T10:45:27;6.65;;;1.42;;
71637;SDS011;59485;43.542;-5.676;2023-09-18T10:47:53;5.65;;;1.00;;
71637;SDS011;59485;43.542;-5.676;2023-09-18T10:50:23;4.13;;;1.13;;
71637;SDS011;59485;43.542;-5.676;2023-09-18T10:52:50;6.45;;;1.60;;
71637;SDS011;59485;43.542;-5.676;2023-09-18T10:55:16;4.63;;;2.07;;
71637;SDS011;59485;43.542;-5.676;2023-09-18T10:57:51;4.80;;;1.38;;
71637;SDS011;59485;43.542;-5.676;2023-09-18T11:00:21;5.57;;;1.70;;
71637;SDS011;59485;43.542;-5.676;2023-09-18T11:02:53;5.47;;;1.40;;
71637;SDS011;59485;43.542;-5.676;2023-09-18T11:05:29;5.32;;;1.95;;
71637;SDS011;59485;43.542;-5.676;2023-09-18T11:10:58;4.65;;;1.30;;
71637;SDS011;59485;43.542;-5.676;2023-09-18T11:13:30;8.73;;;2.07;;
71637;SDS011;59485;43.542;-5.676;2023-09-18T11:16:18;7.68;;;2.35;;
71637;SDS011;59485;43.542;-5.676;2023-09-18T11:21:29;4.93;;;1.33;;
71637;SDS011;59485;43.542;-5.676;2023-09-18T11:26:32;6.00;;;2.10;;
71637;SDS011;59485;43.542;-5.676;2023-09-18T11:29:44;8.45;;;3.33;;
71637;SDS011;59485;43.542;-5.676;2023-09-18T11:31:49;7.82;;;2.75;;
71637;SDS011;59485;43.542;-5.676;2023-09-18T11:34:28;7.93;;;1.58;;
71637;SDS011;59485;43.542;-5.676;2023-09-18T11:36:58;8.68;;;2.83;;
71637;SDS011;59485;43.542;-5.676;2023-09-18T11:39:36;5.83;;;1.50;;
71637;SDS011;59485;43.542;-5.676;2023-09-18T11:42:07;8.40;;;2.03;;
71637;SDS011;59485;43.542;-5.676;2023-09-18T11:44:36;6.93;;;1.90;;
71637;SDS011;59485;43.542;-5.676;2023-09-18T11:47:10;6.25;;;1.65;;
71637;SDS011;59485;43.542;-5.676;2023-09-18T11:49:46;12.57;;;1.30;;
71637;SDS011;59485;43.542;-5.676;2023-09-18T11:52:19;6.10;;;1.42;;
71637;SDS011;59485;43.542;-5.676;2023-09-18T11:54:46;9.23;;;1.92;;
71637;SDS011;59485;43.542;-5.676;2023-09-18T11:57:13;4.25;;;1.10;;
71637;SDS011;59485;43.542;-5.676;2023-09-18T11:59:40;7.95;;;1.95;;
71637;SDS011;59485;43.542;-5.676;2023-09-18T12:02:08;5.87;;;1.53;;
71637;SDS011;59485;43.542;-5.676;2023-09-18T12:04:45;8.50;;;2.10;;
71637;SDS011;59485;43.542;-5.676;2023-09-18T12:07:12;7.97;;;1.52;;
71637;SDS011;59485;43.542;-5.676;2023-09-18T12:09:38;7.38;;;2.15;;
71637;SDS011;59485;43.542;-5.676;2023-09-18T12:12:07;7.45;;;2.20;;
71637;SDS011;59485;43.542;-5.676;2023-09-18T12:14:34;6.80;;;1.57;;
71637;SDS011;59485;43.542;-5.676;2023-09-18T12:17:00;7.05;;;2.00;;
71637;SDS011;59485;43.542;-5.676;2023-09-18T12:19:27;7.35;;;1.98;;
71637;SDS011;59485;43.542;-5.676;2023-09-18T12:21:53;7.30;;;1.90;;
71637;SDS011;59485;43.542;-5.676;2023-09-18T12:24:22;6.50;;;2.03;;
71637;SDS011;59485;43.542;-5.676;2023-09-18T12:26:48;7.53;;;2.63;;
71637;SDS011;59485;43.542;-5.676;2023-09-18T12:29:14;9.10;;;2.80;;
71637;SDS011;59485;43.542;-5.676;2023-09-18T12:31:40;10.95;;;2.63;;
71637;SDS011;59485;43.542;-5.676;2023-09-18T12:34:14;5.83;;;2.43;;
71637;SDS011;59485;43.542;-5.676;2023-09-18T12:36:42;6.03;;;2.13;;
71637;SDS011;59485;43.542;-5.676;2023-09-18T12:39:08;7.57;;;3.00;;
71637;SDS011;59485;43.542;-5.676;2023-09-18T12:41:37;9.43;;;2.67;;
71637;SDS011;59485;43.542;-5.676;2023-09-18T12:44:27;9.73;;;2.05;;
71637;SDS011;59485;43.542;-5.676;2023-09-18T12:46:53;8.73;;;2.47;;
71637;SDS011;59485;43.542;-5.676;2023-09-18T12:49:20;7.13;;;2.05;;
71637;SDS011;59485;43.542;-5.676;2023-09-18T12:54:41;7.03;;;2.35;;
71637;SDS011;59485;43.542;-5.676;2023-09-18T12:57:10;7.87;;;2.10;;
71637;SDS011;59485;43.542;-5.676;2023-09-18T12:59:40;5.60;;;1.85;;
71637;SDS011;59485;43.542;-5.676;2023-09-18T13:02:06;9.48;;;2.53;;
71637;SDS011;59485;43.542;-5.676;2023-09-18T13:04:35;5.30;;;1.90;;
71637;SDS011;59485;43.542;-5.676;2023-09-18T13:07:11;8.68;;;2.25;;
71637;SDS011;59485;43.542;-5.676;2023-09-18T13:09:38;6.88;;;2.42;;
71637;SDS011;59485;43.542;-5.676;2023-09-18T13:12:05;6.45;;;1.98;;
71637;SDS011;59485;43.542;-5.676;2023-09-18T13:14:56;8.15;;;2.75;;
71637;SDS011;59485;43.542;-5.676;2023-09-18T13:17:39;8.50;;;2.57;;
71637;SDS011;59485;43.542;-5.676;2023-09-18T13:20:13;6.18;;;1.63;;
71637;SDS011;59485;43.542;-5.676;2023-09-18T13:22:54;6.97;;;2.35;;
71637;SDS011;59485;43.542;-5.676;2023-09-18T13:27:53;8.25;;;2.47;;
71637;SDS011;59485;43.542;-5.676;2023-09-18T13:30:19;5.33;;;2.00;;
71637;SDS011;59485;43.542;-5.676;2023-09-18T13:32:48;10.35;;;2.08;;
71637;SDS011;59485;43.542;-5.676;2023-09-18T13:35:15;10.85;;;1.88;;
71637;SDS011;59485;43.542;-5.676;2023-09-18T13:37:41;7.82;;;1.67;;
71637;SDS011;59485;43.542;-5.676;2023-09-18T13:40:07;4.97;;;2.10;;
71637;SDS011;59485;43.542;-5.676;2023-09-18T13:42:39;6.80;;;1.70;;
71637;SDS011;59485;43.542;-5.676;2023-09-18T13:45:05;6.32;;;1.80;;
71637;SDS011;59485;43.542;-5.676;2023-09-18T13:47:35;8.25;;;1.60;;
71637;SDS011;59485;43.542;-5.676;2023-09-18T13:50:02;6.60;;;1.52;;
71637;SDS011;59485;43.542;-5.676;2023-09-18T13:52:31;6.77;;;1.40;;
71637;SDS011;59485;43.542;-5.676;2023-09-18T13:54:59;5.22;;;1.52;;
71637;SDS011;59485;43.542;-5.676;2023-09-18T13:57:25;6.72;;;1.60;;
71637;SDS011;59485;43.542;-5.676;2023-09-18T13:59:51;6.47;;;1.45;;
71637;SDS011;59485;43.542;-5.676;2023-09-18T14:02:17;5.40;;;1.58;;
71637;SDS011;59485;43.542;-5.676;2023-09-18T14:04:44;4.97;;;1.80;;
71637;SDS011;59485;43.542;-5.676;2023-09-18T14:07:10;4.70;;;1.60;;
71637;SDS011;59485;43.542;-5.676;2023-09-18T14:09:37;4.82;;;1.55;;
71637;SDS011;59485;43.542;-5.676;2023-09-18T14:12:03;6.15;;;1.30;;
71637;SDS011;59485;43.542;-5.676;2023-09-18T14:14:33;5.20;;;1.02;;
71637;SDS011;59485;43.542;-5.676;2023-09-18T14:17:00;5.10;;;1.30;;
71637;SDS011;59485;43.542;-5.676;2023-09-18T14:19:27;4.63;;;1.50;;
71637;SDS011;59485;43.542;-5.676;2023-09-18T14:21:53;3.97;;;1.15;;
71637;SDS011;59485;43.542;-5.676;2023-09-18T14:24:18;4.87;;;1.17;;
71637;SDS011;59485;43.542;-5.676;2023-09-18T14:26:48;4.80;;;1.58;;
71637;SDS011;59485;43.542;-5.676;2023-09-18T14:29:14;6.85;;;1.38;;
71637;SDS011;59485;43.542;-5.676;2023-09-18T14:31:40;5.15;;;1.67;;
71637;SDS011;59485;43.542;-5.676;2023-09-18T14:34:05;6.70;;;1.33;;
71637;SDS011;59485;43.542;-5.676;2023-09-18T14:36:31;5.40;;;1.30;;
71637;SDS011;59485;43.542;-5.676;2023-09-18T14:39:01;6.00;;;1.30;;
71637;SDS011;59485;43.542;-5.676;2023-09-18T14:41:28;6.40;;;1.30;;
71637;SDS011;59485;43.542;-5.676;2023-09-18T14:43:54;15.15;;;2.42;;
71637;SDS011;59485;43.542;-5.676;2023-09-18T14:46:22;4.90;;;1.48;;
71637;SDS011;59485;43.542;-5.676;2023-09-18T14:48:47;6.23;;;1.40;;
71637;SDS011;59485;43.542;-5.676;2023-09-18T14:51:13;13.60;;;2.08;;
71637;SDS011;59485;43.542;-5.676;2023-09-18T14:53:38;13.23;;;1.93;;
71637;SDS011;59485;43.542;-5.676;2023-09-18T14:56:04;18.80;;;2.47;;